Oka, Canada
Current Conditions -  °F | °C
As of 8:00 PM on Wednesday 26 Nov 2014 (Local Time) from CYMX Reporting Station
Overcast Overcast  
Wind Chill: 25°   Ceiling: 8100
Heat Index: 30°   Visibility: 25mi
Dew Point: 19°   Wind: 5mph
Humidity: 64%   Direction: 30°NNE
Pressure: 30.11"   Gusts: NA
Location:  45.47°N, 74.08°W
Report Text: CYMX 270100Z 03004KT 330V080 25SM OVC081 M01/M07 A3011 RMK AS8 PRESFR SLP200
Loading
Personal Weather Stations






























Interactive Weather Map New forecast layout! Learn more

10-Day Weather Forecast

Advertisements
Track Severe Weather on mobile